Time;durP1;ratioP1;P1;durP2;ratioP2;P2;SDS_P1;SDS_P2;PMS_P1;PMS_P2;Temp;Humidity;BMP_temperature;BMP_pressure;BME280_temperature;BME280_humidity;BME280_pressure;Samples;Min_cycle;Max_cycle;Signal;HPM_P1;HPM_P2
2022/10/13 00:02:13;;;;;;;18.00;14.80;;;;;;;10.97;100.00;96357.34;5027190;28;24443;-71
2022/10/13 00:04:41;;;;;;;17.88;13.30;;;;;;;10.97;100.00;96354.75;5029106;28;24435;-71
2022/10/13 00:07:08;;;;;;;15.52;11.05;;;;;;;10.98;100.00;96362.47;5021844;28;24424;-71
2022/10/13 00:09:34;;;;;;;13.32;10.90;;;;;;;10.96;100.00;96359.09;5029309;28;24428;-70
2022/10/13 00:12:01;;;;;;;19.75;11.13;;;;;;;10.95;100.00;96356.63;5027810;28;24431;-71
2022/10/13 00:14:27;;;;;;;16.75;11.45;;;;;;;10.98;100.00;96359.03;5022931;28;24432;-71
2022/10/13 00:16:54;;;;;;;16.48;10.98;;;;;;;10.96;100.00;96356.50;5027409;28;24431;-71
2022/10/13 00:19:20;;;;;;;13.68;10.98;;;;;;;10.95;100.00;96357.44;5030041;28;24456;-71
2022/10/13 00:21:48;;;;;;;14.40;10.83;;;;;;;10.92;100.00;96359.38;5024520;28;24910;-70
2022/10/13 00:24:15;;;;;;;15.35;10.38;;;;;;;10.89;100.00;96352.59;5018138;28;24432;-70
2022/10/13 00:26:41;;;;;;;17.52;11.02;;;;;;;10.79;100.00;96359.19;5026360;28;25052;-71
2022/10/13 00:29:08;;;;;;;22.17;15.40;;;;;;;10.64;100.00;96355.66;5030251;28;24522;-70
2022/10/13 00:31:34;;;;;;;19.43;13.57;;;;;;;10.62;100.00;96354.91;5027654;28;24438;-71
2022/10/13 00:34:01;;;;;;;20.02;12.82;;;;;;;10.61;100.00;96354.09;5029918;28;24994;-71
2022/10/13 00:36:29;;;;;;;18.55;11.88;;;;;;;10.61;100.00;96351.50;5025729;28;24435;-71
2022/10/13 00:38:58;;;;;;;16.88;11.57;;;;;;;10.66;100.00;96356.44;5026667;28;24443;-71
2022/10/13 00:41:24;;;;;;;13.77;9.63;;;;;;;10.58;100.00;96349.06;5026688;28;24428;-71
2022/10/13 00:43:55;;;;;;;10.98;9.07;;;;;;;10.52;100.00;96356.31;5026330;28;24477;-71
2022/10/13 00:46:24;;;;;;;15.20;11.40;;;;;;;10.38;100.00;96363.09;5027937;28;24976;-71
2022/10/13 00:48:51;;;;;;;17.58;11.60;;;;;;;10.28;100.00;96359.31;5015164;28;24490;-70
2022/10/13 00:51:22;;;;;;;18.95;10.45;;;;;;;10.33;100.00;96354.72;5028546;28;24432;-71
2022/10/13 00:53:49;;;;;;;15.45;10.55;;;;;;;10.34;100.00;96343.44;5018501;28;24969;-70
2022/10/13 00:56:21;;;;;;;17.58;12.65;;;;;;;10.16;100.00;96352.16;5027208;28;24817;-70
2022/10/13 00:58:48;;;;;;;20.45;11.80;;;;;;;9.96;100.00;96360.91;5020048;28;24439;-70
2022/10/13 01:01:15;;;;;;;17.20;11.45;;;;;;;9.91;100.00;96358.56;5016026;28;24463;-70
2022/10/13 01:03:42;;;;;;;19.88;10.43;;;;;;;10.02;100.00;96358.03;5025994;28;24471;-70
2022/10/13 01:06:09;;;;;;;13.30;10.15;;;;;;;10.06;100.00;96345.75;5020193;28;24443;-70
2022/10/13 01:08:36;;;;;;;11.95;9.40;;;;;;;10.06;100.00;96344.00;5029471;28;24439;-70
2022/10/13 01:11:19;;;;;;;11.95;9.80;;;;;;;10.08;100.00;96354.28;5024936;28;24804;-70
2022/10/13 01:13:56;;;;;;;14.68;10.25;;;;;;;10.12;100.00;96350.59;5011622;28;24490;-70
2022/10/13 01:16:34;;;;;;;12.75;9.05;;;;;;;10.14;100.00;96352.22;5024838;28;24448;-70
2022/10/13 01:19:12;;;;;;;14.48;9.68;;;;;;;10.13;100.00;96352.31;5020019;28;25117;-70
2022/10/13 01:21:44;;;;;;;16.90;10.63;;;;;;;9.94;100.00;96355.00;5021552;28;24424;-70
2022/10/13 01:24:43;;;;;;;20.15;10.82;;;;;;;9.92;100.00;96352.47;5023718;28;25000;-70
2022/10/13 01:27:44;;;;;;;18.92;10.25;;;;;;;9.96;100.00;96350.56;5016447;28;24443;-70
2022/10/13 01:30:15;;;;;;;16.53;11.27;;;;;;;9.87;100.00;96341.53;5020174;28;24519;-70
2022/10/13 01:33:13;;;;;;;17.38;10.55;;;;;;;9.96;100.00;96344.56;5028451;28;24446;-70
2022/10/13 01:35:50;;;;;;;16.48;11.10;;;;;;;10.01;100.00;96343.44;5012789;28;21226;-70
2022/10/13 01:38:26;;;;;;;13.30;9.98;;;;;;;10.04;100.00;96337.22;5030212;28;24438;-70
2022/10/13 01:41:01;;;;;;;15.15;10.27;;;;;;;10.04;100.00;96342.41;5018099;28;24458;-70
2022/10/13 01:43:31;;;;;;;14.45;10.63;;;;;;;10.09;100.00;96337.84;5029092;28;24424;-70
2022/10/13 01:46:07;;;;;;;13.77;10.75;;;;;;;10.11;100.00;96333.41;5025520;28;24438;-70
2022/10/13 01:48:37;;;;;;;16.20;10.45;;;;;;;10.10;100.00;96332.59;5028542;28;24439;-70
2022/10/13 01:51:06;;;;;;;16.58;9.68;;;;;;;10.08;100.00;96330.97;5026774;28;24432;-70
2022/10/13 01:53:33;;;;;;;23.88;10.98;;;;;;;9.94;100.00;96327.38;5019444;28;25004;-70
2022/10/13 01:56:00;;;;;;;17.73;10.45;;;;;;;9.98;100.00;96328.03;5023786;28;24454;-70
2022/10/13 01:58:29;;;;;;;14.82;10.07;;;;;;;9.92;100.00;96326.59;5029307;28;24523;-70
2022/10/13 02:01:12;;;;;;;15.77;10.55;;;;;;;9.84;100.00;96325.31;5024483;28;24458;-70
2022/10/13 02:03:52;;;;;;;17.25;11.15;;;;;;;9.77;100.00;96329.97;5027702;28;24451;-70
2022/10/13 02:06:21;;;;;;;16.92;10.75;;;;;;;9.76;100.00;96325.72;5028320;28;20872;-70
2022/10/13 02:08:56;;;;;;;27.33;12.20;;;;;;;9.68;100.00;96327.88;5026319;28;24455;-70
2022/10/13 02:11:24;;;;;;;13.57;10.50;;;;;;;9.70;100.00;96326.84;5024330;28;25039;-70
2022/10/13 02:13:57;;;;;;;16.77;11.27;;;;;;;9.74;100.00;96330.13;5019036;28;24490;-70
2022/10/13 02:16:27;;;;;;;12.77;10.15;;;;;;;9.82;100.00;96325.38;5025004;28;24431;-70
2022/10/13 02:18:55;;;;;;;12.13;9.77;;;;;;;9.92;100.00;96321.44;5014915;28;24443;-70
2022/10/13 02:21:22;;;;;;;15.38;10.38;;;;;;;9.91;100.00;96321.50;5024354;28;24458;-70
2022/10/13 02:23:48;;;;;;;17.75;10.60;;;;;;;9.86;100.00;96326.06;5018518;28;24428;-70
2022/10/13 02:26:15;;;;;;;13.40;9.48;;;;;;;9.97;100.00;96312.59;5028217;28;24428;-70
2022/10/13 02:28:42;;;;;;;16.13;10.35;;;;;;;10.06;100.00;96315.53;5020371;28;24446;-70
2022/10/13 02:31:09;;;;;;;12.15;8.90;;;;;;;9.92;100.00;96313.66;5026697;28;24522;-70
2022/10/13 02:33:37;;;;;;;12.68;10.35;;;;;;;9.83;100.00;96308.97;5025827;28;24431;-70
2022/10/13 02:36:04;;;;;;;19.83;11.48;;;;;;;9.83;100.00;96311.56;5021598;28;24428;-71
2022/10/13 02:38:31;;;;;;;17.13;11.40;;;;;;;9.81;100.00;96310.78;5027952;28;25279;-71
2022/10/13 02:40:57;;;;;;;15.88;12.15;;;;;;;9.86;100.00;96313.13;5024908;28;24451;-71
2022/10/13 02:43:24;;;;;;;18.52;11.77;;;;;;;9.81;100.00;96310.78;5027508;28;24476;-71
2022/10/13 02:45:50;;;;;;;15.52;11.82;;;;;;;9.79;100.00;96309.19;5023258;28;24439;-71
2022/10/13 02:48:17;;;;;;;18.00;12.05;;;;;;;9.80;100.00;96316.06;5029068;28;24439;-71
2022/10/13 02:50:45;;;;;;;22.08;11.05;;;;;;;9.93;100.00;96315.31;5016680;28;24432;-71
2022/10/13 02:53:12;;;;;;;15.77;10.90;;;;;;;10.05;100.00;96318.19;5028543;28;24443;-71
2022/10/13 02:55:38;;;;;;;18.55;11.75;;;;;;;10.13;100.00;96318.66;5024300;28;24437;-71
2022/10/13 02:58:05;;;;;;;15.35;11.00;;;;;;;10.18;100.00;96312.31;5029295;28;24435;-71
2022/10/13 03:00:31;;;;;;;20.48;11.25;;;;;;;10.25;100.00;96323.22;5016885;28;24492;-70
2022/10/13 03:02:58;;;;;;;13.30;9.60;;;;;;;10.22;100.00;96318.16;5028496;28;24428;-71
2022/10/13 03:05:25;;;;;;;14.75;9.40;;;;;;;10.00;100.00;96315.03;5027368;28;24428;-69
2022/10/13 03:07:53;;;;;;;14.10;8.90;;;;;;;9.90;100.00;96314.66;5032224;28;25015;-71
2022/10/13 03:10:19;;;;;;;11.38;8.40;;;;;;;9.88;100.00;96312.16;5029347;28;24434;-71
2022/10/13 03:12:46;;;;;;;12.30;8.27;;;;;;;9.93;100.00;96311.91;5031756;28;24511;-70
2022/10/13 03:15:12;;;;;;;21.02;8.95;;;;;;;9.90;100.00;96307.75;5029245;28;24432;-70
2022/10/13 03:17:39;;;;;;;12.98;8.48;;;;;;;9.96;100.00;96300.56;5032567;28;24983;-70
2022/10/13 03:20:08;;;;;;;11.43;9.75;;;;;;;9.97;100.00;96308.25;5023566;28;24472;-70
2022/10/13 03:22:35;;;;;;;14.38;10.75;;;;;;;10.02;100.00;96308.84;5027066;28;24435;-70
2022/10/13 03:25:03;;;;;;;15.30;10.50;;;;;;;10.11;100.00;96294.59;5024611;28;24437;-70
2022/10/13 03:27:30;;;;;;;20.85;11.98;;;;;;;10.13;100.00;96291.00;5023827;28;24475;-70
2022/10/13 03:29:56;;;;;;;18.95;11.80;;;;;;;10.09;100.00;96289.50;5024733;28;24438;-70
2022/10/13 03:32:23;;;;;;;13.30;11.60;;;;;;;10.13;100.00;96285.84;5026382;28;24436;-70
2022/10/13 03:34:50;;;;;;;16.38;11.93;;;;;;;10.13;100.00;96285.00;5023452;28;24428;-70
2022/10/13 03:37:17;;;;;;;18.45;13.85;;;;;;;10.10;100.00;96285.16;5027684;28;24443;-71
2022/10/13 03:39:43;;;;;;;30.58;17.88;;;;;;;10.14;100.00;96291.84;5030184;28;24439;-71
2022/10/13 03:42:11;;;;;;;23.17;15.93;;;;;;;10.15;100.00;96302.09;5027626;28;24455;-70
2022/10/13 03:44:38;;;;;;;17.35;12.65;;;;;;;10.09;100.00;96304.19;5028030;28;24432;-69
2022/10/13 03:47:04;;;;;;;21.52;13.38;;;;;;;10.08;100.00;96299.91;5022617;28;24435;-70
2022/10/13 03:49:31;;;;;;;19.73;12.98;;;;;;;10.11;100.00;96304.94;5029966;28;24445;-70
2022/10/13 03:51:57;;;;;;;16.17;12.18;;;;;;;10.16;100.00;96301.22;5027647;28;24954;-70
2022/10/13 03:54:24;;;;;;;18.73;12.95;;;;;;;10.11;100.00;96299.75;5022992;28;24428;-70
2022/10/13 03:56:50;;;;;;;17.05;12.65;;;;;;;10.14;100.00;96302.19;5017234;28;24438;-70
2022/10/13 03:59:18;;;;;;;24.70;13.60;;;;;;;10.13;100.00;96293.59;5030396;28;24443;-71
2022/10/13 04:01:45;;;;;;;23.73;13.48;;;;;;;10.10;100.00;96288.59;5028463;28;24536;-70
2022/10/13 04:04:12;;;;;;;26.70;13.73;;;;;;;10.07;100.00;96285.31;5028849;28;24443;-70
2022/10/13 04:06:39;;;;;;;22.90;14.37;;;;;;;10.10;100.00;96285.16;5029916;28;24526;-70
2022/10/13 04:09:05;;;;;;;17.80;14.40;;;;;;;10.10;100.00;96280.00;5029165;28;25050;-71
2022/10/13 04:11:32;;;;;;;22.38;14.43;;;;;;;10.08;100.00;96282.63;5030536;28;24431;-71
2022/10/13 04:13:58;;;;;;;26.07;15.73;;;;;;;10.08;100.00;96290.41;5014509;28;24436;-70
2022/10/13 04:16:29;;;;;;;26.02;14.80;;;;;;;10.15;100.00;96285.75;5024347;28;24431;-71
2022/10/13 04:18:58;;;;;;;20.90;15.48;;;;;;;10.16;100.00;96287.44;5043088;22;24447;-69
2022/10/13 04:21:25;;;;;;;28.73;16.58;;;;;;;10.12;100.00;96289.34;4991276;28;24572;-73
2022/10/13 04:23:55;;;;;;;21.48;14.73;;;;;;;10.16;100.00;96288.28;4982572;28;24454;-72
2022/10/13 04:26:23;;;;;;;21.38;14.32;;;;;;;10.17;100.00;96292.53;4991290;28;24448;-72
2022/10/13 04:28:51;;;;;;;18.58;13.93;;;;;;;10.17;100.00;96297.69;4991049;28;24436;-72
2022/10/13 04:31:20;;;;;;;28.23;14.70;;;;;;;10.08;100.00;96294.75;4991626;28;24448;-72
2022/10/13 04:33:48;;;;;;;22.83;14.50;;;;;;;10.04;100.00;96290.66;4996096;28;24925;-72
2022/10/13 04:36:16;;;;;;;20.85;14.10;;;;;;;10.12;100.00;96288.50;4991577;28;24447;-72
2022/10/13 04:38:43;;;;;;;27.15;15.40;;;;;;;10.06;100.00;96294.00;4992040;28;24432;-72
2022/10/13 04:41:12;;;;;;;26.85;15.25;;;;;;;10.06;100.00;96288.84;4991356;28;24495;-72
2022/10/13 04:43:38;;;;;;;17.02;14.27;;;;;;;10.10;100.00;96287.75;4991517;28;24441;-72
2022/10/13 04:46:07;;;;;;;22.45;14.18;;;;;;;10.02;100.00;96285.56;4991178;28;24441;-72
2022/10/13 04:48:34;;;;;;;21.90;14.02;;;;;;;9.99;100.00;96277.97;4986167;28;24436;-72
2022/10/13 04:51:05;;;;;;;26.52;14.80;;;;;;;9.92;100.00;96269.66;4990988;28;25117;-72
2022/10/13 04:53:32;;;;;;;22.67;15.00;;;;;;;9.93;100.00;96268.75;4993601;28;24440;-72
2022/10/13 04:56:01;;;;;;;20.63;15.10;;;;;;;9.98;100.00;96275.47;4990835;28;24436;-72
2022/10/13 04:58:27;;;;;;;20.83;14.90;;;;;;;9.91;100.00;96280.94;4991065;28;24985;-72
2022/10/13 05:00:54;;;;;;;23.50;15.30;;;;;;;9.93;100.00;96284.28;4990854;28;24461;-72
2022/10/13 05:03:20;;;;;;;19.80;16.13;;;;;;;9.97;100.00;96284.94;4990831;28;24785;-72
2022/10/13 05:05:47;;;;;;;19.55;15.10;;;;;;;9.98;100.00;96289.22;4982364;28;24791;-72
2022/10/13 05:08:15;;;;;;;15.65;13.95;;;;;;;10.02;100.00;96288.16;4993644;28;24436;-72
2022/10/13 05:10:41;;;;;;;20.23;13.63;;;;;;;10.00;100.00;96284.78;4990440;28;24874;-72
2022/10/13 05:13:08;;;;;;;17.80;13.60;;;;;;;9.98;100.00;96286.66;4993373;28;24433;-72
2022/10/13 05:15:34;;;;;;;18.33;14.32;;;;;;;10.04;100.00;96277.72;4990762;28;24436;-72
2022/10/13 05:18:01;;;;;;;19.40;13.93;;;;;;;10.01;100.00;96285.63;4992874;28;24429;-72
2022/10/13 05:20:28;;;;;;;17.80;13.77;;;;;;;9.98;100.00;96281.47;4985289;28;24437;-72
2022/10/13 05:22:54;;;;;;;17.60;13.30;;;;;;;10.04;100.00;96280.28;4985445;28;24440;-72
2022/10/13 05:25:22;;;;;;;18.75;14.15;;;;;;;9.99;100.00;96282.31;4990436;28;24517;-72
2022/10/13 05:27:48;;;;;;;25.65;15.40;;;;;;;10.03;100.00;96287.22;4991030;28;24456;-72
2022/10/13 05:30:15;;;;;;;18.95;14.27;;;;;;;10.02;100.00;96284.72;4995541;28;24440;-72
2022/10/13 05:32:41;;;;;;;20.77;15.00;;;;;;;10.07;100.00;96291.31;4990005;28;24644;-72
2022/10/13 05:35:09;;;;;;;26.90;15.18;;;;;;;10.05;100.00;96288.00;4983067;28;25024;-72
2022/10/13 05:37:35;;;;;;;19.93;15.00;;;;;;;10.08;100.00;96280.06;4989457;28;24439;-72
2022/10/13 05:40:02;;;;;;;27.77;15.43;;;;;;;10.07;100.00;96280.16;4989623;28;25335;-72
2022/10/13 05:42:30;;;;;;;23.40;15.57;;;;;;;10.05;100.00;96272.47;4989513;28;24548;-72
2022/10/13 05:44:57;;;;;;;21.38;14.70;;;;;;;10.11;100.00;96273.88;4983390;28;24997;-72
2022/10/13 05:47:26;;;;;;;20.87;14.10;;;;;;;10.11;100.00;96272.13;4986832;28;24536;-73
2022/10/13 05:49:53;;;;;;;18.80;14.60;;;;;;;10.14;100.00;96265.97;4982292;28;24444;-71
2022/10/13 05:52:21;;;;;;;22.05;14.68;;;;;;;10.17;100.00;96261.47;4986996;28;25028;-73
2022/10/13 05:54:50;;;;;;;17.02;14.10;;;;;;;10.14;100.00;96259.03;4989362;28;24811;-73
2022/10/13 05:57:21;;;;;;;17.92;13.40;;;;;;;10.17;100.00;96251.09;4990353;28;24437;-73
2022/10/13 05:59:52;;;;;;;22.30;15.32;;;;;;;10.14;100.00;96251.25;4984315;28;24456;-73
2022/10/13 06:02:22;;;;;;;23.97;14.87;;;;;;;10.14;100.00;96255.59;4982410;28;24534;-73
2022/10/13 06:04:51;;;;;;;25.40;15.80;;;;;;;10.16;100.00;96258.97;4995131;28;24436;-72
2022/10/13 06:07:18;;;;;;;17.88;14.93;;;;;;;10.20;100.00;96260.47;4993232;28;24429;-73
2022/10/13 06:09:44;;;;;;;25.27;15.30;;;;;;;10.17;100.00;96265.81;4990189;28;25022;-73
2022/10/13 06:12:11;;;;;;;20.80;15.45;;;;;;;10.15;100.00;96272.81;4992998;28;24934;-73
2022/10/13 06:14:37;;;;;;;17.48;13.45;;;;;;;10.15;100.00;96265.03;4995263;28;25008;-72
2022/10/13 06:17:06;;;;;;;16.83;14.23;;;;;;;10.18;100.00;96259.69;4989709;28;24439;-72
2022/10/13 06:19:32;;;;;;;18.67;13.25;;;;;;;10.25;100.00;96258.50;4995673;28;24447;-72
2022/10/13 06:21:59;;;;;;;19.33;14.00;;;;;;;10.22;100.00;96255.19;4989534;28;24449;-73
2022/10/13 06:24:25;;;;;;;16.77;13.47;;;;;;;10.30;100.00;96256.47;4988877;28;24428;-72
2022/10/13 06:26:52;;;;;;;20.43;14.47;;;;;;;10.34;100.00;96257.97;4985156;28;24456;-72
2022/10/13 06:29:18;;;;;;;18.80;13.53;;;;;;;10.37;100.00;96255.22;4989775;28;24437;-73
2022/10/13 06:31:45;;;;;;;19.15;14.23;;;;;;;10.34;100.00;96257.16;4989990;28;24429;-72
2022/10/13 06:34:13;;;;;;;20.77;13.90;;;;;;;10.35;100.00;96254.50;4994011;28;25012;-73
2022/10/13 06:36:40;;;;;;;17.08;12.98;;;;;;;10.41;100.00;96263.66;4989489;28;25006;-72
2022/10/13 06:39:07;;;;;;;19.25;14.65;;;;;;;10.28;100.00;96260.09;4989081;28;24445;-72
2022/10/13 06:41:34;;;;;;;16.77;14.57;;;;;;;10.30;100.00;96259.06;4996468;28;24475;-72
2022/10/13 06:44:00;;;;;;;23.48;16.38;;;;;;;10.25;100.00;96255.03;4999541;28;24989;-72
2022/10/13 06:46:27;;;;;;;17.85;14.98;;;;;;;10.30;100.00;96255.66;4993243;28;24440;-72
2022/10/13 06:48:53;;;;;;;19.30;15.95;;;;;;;10.27;100.00;96255.81;4989441;28;24440;-72
2022/10/13 06:51:21;;;;;;;20.97;14.10;;;;;;;10.37;100.00;96260.41;4991225;28;24436;-72
2022/10/13 06:53:48;;;;;;;16.60;13.15;;;;;;;10.45;100.00;96264.34;4993309;28;24865;-70
2022/10/13 06:56:14;;;;;;;18.25;12.88;;;;;;;10.45;100.00;96265.19;4992981;28;24429;-70
2022/10/13 06:58:41;;;;;;;18.13;14.00;;;;;;;10.44;100.00;96265.28;4992850;28;24428;-72
2022/10/13 07:01:08;;;;;;;19.45;14.90;;;;;;;10.39;100.00;96260.34;4993563;28;24429;-72
2022/10/13 07:03:34;;;;;;;22.02;15.10;;;;;;;10.47;100.00;96262.50;4993845;28;24429;-72
2022/10/13 07:06:01;;;;;;;22.48;15.13;;;;;;;10.49;100.00;96264.09;4994474;28;24440;-71
2022/10/13 07:08:29;;;;;;;21.98;15.00;;;;;;;10.46;100.00;96268.63;4993614;28;24433;-71
2022/10/13 07:10:56;;;;;;;22.23;15.85;;;;;;;10.40;100.00;96268.03;4992721;28;24440;-72
2022/10/13 07:13:23;;;;;;;19.58;15.40;;;;;;;10.33;100.00;96271.03;4992767;28;24453;-72
2022/10/13 07:15:49;;;;;;;19.85;14.68;;;;;;;10.43;100.00;96279.16;4999550;28;25046;-72
2022/10/13 07:18:16;;;;;;;21.77;13.52;;;;;;;10.47;100.00;96275.47;4993260;28;24440;-71
2022/10/13 07:20:42;;;;;;;18.75;13.95;;;;;;;10.54;100.00;96269.88;4992745;28;24445;-72
2022/10/13 07:23:09;;;;;;;21.35;13.98;;;;;;;10.58;100.00;96270.53;4992719;28;24453;-71
2022/10/13 07:25:37;;;;;;;19.80;14.43;;;;;;;10.61;100.00;96271.22;4992618;28;24792;-72
2022/10/13 07:28:04;;;;;;;19.13;13.57;;;;;;;10.63;100.00;96271.09;4992608;28;24429;-72
2022/10/13 07:30:30;;;;;;;21.55;14.23;;;;;;;10.68;100.00;96260.47;5000018;28;24439;-72
2022/10/13 07:32:58;;;;;;;16.75;13.45;;;;;;;10.68;100.00;96257.91;4992462;28;24814;-72
2022/10/13 07:35:25;;;;;;;18.17;14.02;;;;;;;10.74;100.00;96268.75;4992620;28;24441;-72
2022/10/13 07:37:52;;;;;;;18.45;13.98;;;;;;;10.73;100.00;96267.09;4987596;28;24449;-72
2022/10/13 07:40:19;;;;;;;20.80;12.75;;;;;;;10.73;100.00;96268.84;4992166;28;24437;-72
2022/10/13 07:42:47;;;;;;;18.23;13.25;;;;;;;10.80;100.00;96263.25;4989557;28;24460;-73
2022/10/13 07:45:13;;;;;;;18.50;13.90;;;;;;;10.84;100.00;96256.97;5003259;28;24443;-72
2022/10/13 07:47:40;;;;;;;21.98;14.48;;;;;;;10.92;100.00;96253.94;4999603;28;24954;-72
2022/10/13 07:50:08;;;;;;;16.77;12.90;;;;;;;11.00;100.00;96251.75;4992535;28;24448;-71
2022/10/13 07:52:35;;;;;;;22.20;14.65;;;;;;;10.89;100.00;96243.75;4992432;28;24444;-72
2022/10/13 07:55:01;;;;;;;18.38;13.38;;;;;;;10.96;100.00;96249.44;4992119;28;24978;-72
2022/10/13 07:57:28;;;;;;;20.08;13.02;;;;;;;11.04;100.00;96242.03;4992694;28;24432;-71
2022/10/13 07:59:56;;;;;;;19.58;12.65;;;;;;;11.12;100.00;96238.09;4992361;28;24433;-71
2022/10/13 08:02:22;;;;;;;14.95;13.23;;;;;;;11.12;100.00;96245.88;4994596;28;24453;-71
2022/10/13 08:04:49;;;;;;;19.83;13.20;;;;;;;11.02;100.00;96239.56;4989505;28;24452;-71
2022/10/13 08:07:16;;;;;;;19.45;12.65;;;;;;;11.13;100.00;96241.53;4992342;28;24737;-71
2022/10/13 08:09:43;;;;;;;15.98;12.23;;;;;;;11.12;100.00;96239.84;4997664;28;24547;-72
2022/10/13 08:12:10;;;;;;;15.35;12.65;;;;;;;11.21;100.00;96238.50;4992078;28;24779;-72
2022/10/13 08:14:36;;;;;;;24.42;13.30;;;;;;;11.27;100.00;96241.56;4991897;28;24487;-71
2022/10/13 08:17:04;;;;;;;19.13;12.68;;;;;;;11.29;100.00;96239.72;4995783;28;24795;-71
2022/10/13 08:19:31;;;;;;;24.53;13.17;;;;;;;11.39;100.00;96247.81;4997708;28;25056;-71
2022/10/13 08:21:57;;;;;;;20.17;12.07;;;;;;;11.48;100.00;96230.84;4991881;28;24842;-71
2022/10/13 08:24:24;;;;;;;17.58;11.55;;;;;;;11.42;100.00;96232.06;4991116;28;24433;-71
2022/10/13 08:26:51;;;;;;;16.58;11.18;;;;;;;11.51;100.00;96228.09;4991847;28;24448;-71
2022/10/13 08:29:17;;;;;;;13.48;11.07;;;;;;;11.56;100.00;96224.28;4991921;28;24441;-71
2022/10/13 08:31:44;;;;;;;20.58;11.30;;;;;;;11.62;100.00;96228.28;4991823;28;24782;-72
2022/10/13 08:34:12;;;;;;;16.05;11.35;;;;;;;11.62;100.00;96223.94;4990848;28;24444;-72
2022/10/13 08:36:39;;;;;;;17.98;11.05;;;;;;;11.70;100.00;96222.63;4994402;28;24455;-72
2022/10/13 08:39:06;;;;;;;12.85;10.35;;;;;;;11.78;100.00;96228.19;4985781;28;24426;-72
2022/10/13 08:41:37;;;;;;;21.25;10.93;;;;;;;11.90;100.00;96234.44;4992944;28;24976;-72
2022/10/13 08:44:07;;;;;;;15.45;10.95;;;;;;;11.89;100.00;96230.19;4997902;28;24969;-71
2022/10/13 08:46:47;;;;;;;13.90;10.48;;;;;;;12.01;100.00;96226.81;4995964;28;24439;-71
2022/10/13 08:49:17;;;;;;;14.45;10.80;;;;;;;12.00;100.00;96230.34;4991057;28;24818;-71
2022/10/13 08:51:43;;;;;;;13.82;11.20;;;;;;;12.00;100.00;96228.59;4990952;28;24437;-72
2022/10/13 08:54:14;;;;;;;17.73;10.75;;;;;;;12.10;100.00;96236.66;4990510;28;24428;-72
2022/10/13 08:56:41;;;;;;;15.50;10.93;;;;;;;12.18;100.00;96236.19;4992720;28;24442;-71
2022/10/13 08:59:15;;;;;;;14.27;10.15;;;;;;;12.30;100.00;96232.81;4990916;28;24437;-71
2022/10/13 09:01:47;;;;;;;15.00;9.82;;;;;;;12.44;100.00;96232.78;4996140;28;24522;-72
2022/10/13 09:04:27;;;;;;;15.02;10.10;;;;;;;12.57;100.00;96225.09;4998469;28;24440;-71
2022/10/13 09:06:56;;;;;;;11.20;9.77;;;;;;;12.56;100.00;96237.22;4983406;28;24440;-71
2022/10/13 09:09:22;;;;;;;18.17;11.10;;;;;;;12.66;100.00;96228.84;4993694;28;24437;-72
2022/10/13 09:11:50;;;;;;;16.88;10.05;;;;;;;12.58;100.00;96237.97;4996429;28;24452;-71
2022/10/13 09:14:21;;;;;;;12.23;9.27;;;;;;;12.52;100.00;96232.31;4990415;28;24429;-71
2022/10/13 09:16:49;;;;;;;13.27;9.68;;;;;;;12.55;100.00;96229.53;4990995;28;24835;-72
2022/10/13 09:19:24;;;;;;;11.70;9.10;;;;;;;12.57;100.00;96231.09;4989124;28;24437;-72
2022/10/13 09:21:53;;;;;;;13.18;9.10;;;;;;;12.62;100.00;96224.78;4986080;28;24437;-71
2022/10/13 09:24:22;;;;;;;13.37;9.83;;;;;;;12.66;100.00;96229.69;4990174;28;24441;-71
2022/10/13 09:26:51;;;;;;;16.63;9.87;;;;;;;12.70;100.00;96230.31;4990303;28;24520;-71
2022/10/13 09:29:20;;;;;;;15.13;9.45;;;;;;;12.82;100.00;96219.94;4990548;28;24895;-72
2022/10/13 09:31:47;;;;;;;20.23;10.02;;;;;;;12.88;100.00;96225.72;4989897;28;24436;-72
2022/10/13 09:34:23;;;;;;;12.32;9.90;;;;;;;12.87;100.00;96218.81;4990108;28;24435;-71
2022/10/13 09:36:59;;;;;;;12.27;9.83;;;;;;;13.00;100.00;96219.69;4990447;28;24444;-72
2022/10/13 09:39:26;;;;;;;17.55;9.68;;;;;;;12.98;100.00;96237.19;4993365;28;24810;-72
2022/10/13 09:42:18;;;;;;;16.58;10.93;;;;;;;12.94;100.00;96225.28;4989857;28;24432;-72
2022/10/13 09:44:45;;;;;;;13.00;9.75;;;;;;;13.04;100.00;96231.56;4992865;28;24460;-72
2022/10/13 09:47:19;;;;;;;13.00;9.23;;;;;;;13.16;100.00;96230.75;4990396;28;24456;-72
2022/10/13 09:49:46;;;;;;;16.38;9.82;;;;;;;13.09;100.00;96229.53;4989089;28;24784;-72
2022/10/13 09:52:18;;;;;;;13.55;9.57;;;;;;;13.21;100.00;96223.50;4989993;28;24460;-72
2022/10/13 09:54:49;;;;;;;21.15;10.25;;;;;;;13.23;100.00;96226.84;4988740;28;24532;-72
2022/10/13 09:57:28;;;;;;;16.13;9.53;;;;;;;13.26;100.00;96223.22;4990327;28;24437;-72
2022/10/13 10:00:03;;;;;;;16.67;10.50;;;;;;;13.17;100.00;96222.03;4987237;28;24848;-72
2022/10/13 10:02:34;;;;;;;12.50;9.00;;;;;;;13.20;100.00;96226.19;4989786;28;24507;-73
2022/10/13 10:05:05;;;;;;;15.70;9.38;;;;;;;13.07;100.00;96219.19;4989746;28;24429;-72
2022/10/13 10:07:34;;;;;;;16.63;8.77;;;;;;;13.09;100.00;96224.31;4997642;28;24425;-72
2022/10/13 10:10:04;;;;;;;14.03;8.93;;;;;;;13.07;100.00;96227.00;4989481;28;24522;-72
2022/10/13 10:12:36;;;;;;;15.70;9.80;;;;;;;13.10;100.00;96230.34;4989346;28;24436;-72
2022/10/13 10:15:09;;;;;;;13.20;9.45;;;;;;;13.23;100.00;96220.78;4989498;28;24535;-72
2022/10/13 10:17:41;;;;;;;17.10;9.20;;;;;;;13.27;100.00;96219.69;4989833;28;24425;-72
2022/10/13 10:20:28;;;;;;;13.63;9.40;;;;;;;13.25;100.00;96217.19;5020215;22;24713;-79
2022/10/13 10:23:04;;;;;;;16.27;9.45;;;;;;;13.32;100.00;96210.66;5047057;28;24804;-79
2022/10/13 10:25:37;;;;;;;13.85;8.20;;;;;;;13.43;100.00;96209.09;5048757;28;24450;-79
2022/10/13 10:28:31;;;;;;;13.53;9.00;;;;;;;13.54;100.00;96217.03;5041013;28;24987;-77
2022/10/13 10:31:06;;;;;;;18.88;9.90;;;;;;;13.62;100.00;96212.13;5036343;28;24432;-77
2022/10/13 10:33:47;;;;;;;14.35;9.10;;;;;;;13.67;100.00;96214.41;5026607;28;24431;-77
2022/10/13 10:36:19;;;;;;;18.48;9.02;;;;;;;13.80;100.00;96207.44;5023368;28;24436;-76
2022/10/13 10:38:51;;;;;;;14.20;8.60;;;;;;;13.86;100.00;96207.00;5026657;28;24440;-76
2022/10/13 10:41:32;;;;;;;14.73;8.27;;;;;;;13.80;100.00;96205.66;5034360;28;24527;-76
2022/10/13 10:44:03;;;;;;;12.80;8.13;;;;;;;13.88;100.00;96192.13;5019199;28;24458;-77
2022/10/13 10:46:35;;;;;;;14.32;8.10;;;;;;;14.07;100.00;96196.88;5029805;28;24443;-76
2022/10/13 10:49:11;;;;;;;14.95;8.45;;;;;;;14.27;100.00;96191.09;5032306;28;24435;-74
2022/10/13 10:51:38;;;;;;;14.70;7.90;;;;;;;14.48;100.00;96195.72;5039899;28;24427;-76
2022/10/13 10:54:22;;;;;;;10.75;7.25;;;;;;;14.70;100.00;96198.47;5027307;28;24485;-77
2022/10/13 10:56:53;;;;;;;10.48;6.65;;;;;;;14.80;100.00;96193.44;5028109;28;24432;-76
2022/10/13 10:59:39;;;;;;;13.95;6.90;;;;;;;14.84;100.00;96184.44;5031461;28;24443;-76
2022/10/13 11:02:18;;;;;;;20.45;6.50;;;;;;;14.96;100.00;96180.09;5014081;28;24544;-76
2022/10/13 11:04:47;;;;;;;9.00;6.60;;;;;;;14.80;100.00;96183.00;5026846;28;24900;-76
2022/10/13 11:07:35;;;;;;;12.45;6.18;;;;;;;14.93;100.00;96169.91;5034183;28;24440;-75
2022/10/13 11:10:20;;;;;;;10.60;5.88;;;;;;;14.93;100.00;96170.72;5017728;28;24502;-75
2022/10/13 11:13:03;;;;;;;8.95;6.40;;;;;;;14.96;100.00;96169.66;5025675;28;24980;-74
2022/10/13 11:15:41;;;;;;;10.80;6.23;;;;;;;14.96;100.00;96164.44;5028536;28;24960;-76
2022/10/13 11:18:41;;;;;;;10.67;5.70;;;;;;;14.97;100.00;96159.13;5024888;28;24503;-77
2022/10/13 11:21:07;;;;;;;9.00;5.43;;;;;;;15.09;100.00;96160.00;5035766;28;24442;-77
2022/10/13 11:23:34;;;;;;;8.90;5.45;;;;;;;15.23;100.00;96151.94;5031728;28;24844;-76